Accueil
METAR-TAF:

METAR-TAF

Aéroports :

Aéroport international Lynden Pindling

Nassau, Bahamas

latitude: 25-03N, longitude: 077-28W, altitude: 3 m

Observation

Le bulletin a été fait il y a 44 minutes, à 02:00 UTC
Vent 7 kt de sud-est
Température 25°C
Humidité 83%
Pression 1021 hPa
Visibilité 10 km ou plus
Nuages épars à une hauteur de 2500 ft

METAR: MYNN 220200Z 14007KT 9999 SCT025 25/22 A3016

Heure: 21:44 (02:44 UTC)

Prévision

Le bulletin a été fait il y a 3 heures et 59 minutes, à 22:45 UTC
Prévision valable du 22 à 00 UTC au 23 à 00 UTC
Vent 12 kt de sud-est
Visibilité 10 km ou plus
Nuages épars à une hauteur de 2200 ft
Probabilité 30% :
Temporairement
du 22 à 09 UTC au 22 à 15 UTC
Vent 15 kt de est/sud-est
Visibilité: 9000 m
Nuages fragmentés à une hauteur de 1500 ft
Nuages fragmentés à une hauteur de 4000 ft
averses de pluie

TAF: MYNN 212245Z 2200/2300 14012KT 9999 SCT022 PROB30 TEMPO 2209/2215 11015KT 9000 SHRA BKN015 BKN040

Observations et prévisions météorologiques de plus de 4000 aéroports (messages METAR et TAF).

Les stations disponibles sont représentées par des disques jaunes et rouges sur la carte.

Passer la souris dessus pour voir le nom de la station.

Cliquer dessus pour voir les observations et prévisions météorologiques.

Pour changer de carte: cliquez sur les boutons verts avec une croix noire pour zoomer, sur le bouton vert avec un tiret pour effectuer un zoom arrière, ou sur les flèches vertes pour les cartes adjacentes.


METAR-TAF: